createdAt,value
2019-03-28T00:01:42.093Z,42.48
2019-03-28T00:04:11.925Z,49.05
2019-03-28T00:06:41.499Z,39.05
2019-03-28T00:09:11.127Z,40.40
2019-03-28T00:11:40.810Z,36.58
2019-03-28T00:14:10.471Z,40.65
2019-03-28T00:16:40.222Z,41.02
2019-03-28T00:19:09.894Z,37.65
2019-03-28T00:21:39.467Z,36.58
2019-03-28T00:24:11.002Z,44.48
2019-03-28T00:26:40.581Z,37.58
2019-03-28T00:29:10.148Z,40.08
2019-03-28T00:31:39.831Z,35.73
2019-03-28T00:34:10.192Z,38.45
2019-03-28T00:36:39.870Z,44.18
2019-03-28T00:39:09.556Z,35.63
2019-03-28T00:41:39.114Z,42.25
2019-03-28T00:44:08.996Z,36.10
2019-03-28T00:46:38.557Z,37.13
2019-03-28T00:49:08.240Z,38.00
2019-03-28T00:51:43.041Z,34.30
2019-03-28T00:54:11.835Z,41.25
2019-03-28T00:56:46.848Z,33.60
2019-03-28T00:59:12.626Z,39.20
2019-03-28T01:01:42.184Z,39.73
2019-03-28T01:04:11.968Z,39.25
2019-03-28T01:06:41.925Z,35.83
2019-03-28T01:09:11.502Z,45.52
2019-03-28T01:11:41.575Z,45.17
2019-03-28T01:14:11.150Z,37.40
2019-03-28T01:16:40.984Z,44.33
2019-03-28T01:19:11.236Z,34.48
2019-03-28T01:21:41.393Z,40.50
2019-03-28T01:24:11.241Z,40.75
2019-03-28T01:26:40.804Z,39.75
2019-03-28T01:29:10.674Z,40.65
2019-03-28T01:31:40.443Z,41.23
2019-03-28T01:34:10.100Z,45.63
2019-03-28T01:36:40.292Z,33.48
2019-03-28T01:39:10.354Z,39.03
2019-03-28T01:41:41.144Z,40.90
2019-03-28T01:44:11.033Z,42.23
2019-03-28T02:07:38.346Z,54.73
2019-03-28T02:10:08.287Z,49.93
2019-03-28T02:12:37.944Z,56.80
2019-03-28T02:15:09.059Z,50.92
2019-03-28T02:17:39.016Z,55.75
2019-03-28T02:20:10.325Z,51.48
2019-03-28T02:22:40.306Z,54.30
2019-03-28T02:25:10.074Z,48.30
2019-03-28T02:27:39.660Z,52.33
2019-03-28T02:30:09.975Z,52.25
2019-03-28T02:32:39.539Z,57.75
2019-03-28T02:35:09.789Z,53.23
2019-03-28T02:37:39.537Z,56.20
2019-03-28T02:40:09.591Z,60.03
2019-03-28T02:42:39.453Z,58.10
2019-03-28T02:45:09.220Z,62.70
2019-03-28T02:47:38.859Z,65.15
2019-03-28T02:50:09.166Z,56.37
2019-03-28T02:52:38.739Z,57.93
2019-03-28T02:55:08.837Z,63.08
2019-03-28T02:57:42.086Z,63.05
2019-03-28T03:00:11.124Z,63.90
2019-03-28T03:02:40.679Z,59.75
2019-03-28T03:05:10.402Z,63.20
2019-03-28T03:07:40.008Z,62.17
2019-03-28T03:10:10.296Z,64.90
2019-03-28T03:12:39.871Z,70.32
2019-03-28T03:15:10.266Z,69.70
2019-03-28T03:17:39.952Z,63.80
2019-03-28T03:20:10.055Z,76.45
2019-03-28T03:22:39.901Z,69.60
2019-03-28T03:25:09.915Z,68.37
2019-03-28T03:27:56.228Z,68.28
2019-03-28T03:30:10.830Z,64.35
2019-03-28T03:32:40.419Z,70.97
2019-03-28T03:35:11.222Z,67.03
2019-03-28T03:37:41.007Z,66.33
2019-03-28T03:40:11.321Z,69.50
2019-03-28T03:42:40.998Z,75.03
2019-03-28T03:45:10.837Z,69.65
2019-03-28T03:47:43.414Z,72.72
2019-03-28T03:50:16.251Z,68.67
2019-03-28T03:52:45.831Z,72.47
2019-03-28T03:55:15.517Z,70.37
2019-03-28T03:57:45.401Z,71.22
2019-03-28T04:00:18.041Z,65.92
2019-03-28T04:02:47.708Z,79.67
2019-03-28T04:05:17.593Z,69.82
2019-03-28T04:07:47.594Z,72.20
2019-03-28T04:10:17.085Z,74.95
2019-03-28T04:12:46.971Z,71.65
2019-03-28T04:15:16.637Z,78.80
2019-03-28T04:17:47.742Z,71.97
2019-03-28T04:20:17.681Z,77.10
2019-03-28T04:22:47.532Z,78.87
2019-03-28T04:25:17.086Z,79.05
2019-03-28T04:27:47.057Z,77.55
2019-03-28T04:30:16.834Z,74.37
2019-03-28T04:32:46.845Z,70.57
2019-03-28T04:35:16.594Z,71.12
2019-03-28T04:37:46.264Z,94.30
2019-03-28T04:40:16.119Z,97.62
2019-03-28T04:42:46.168Z,85.85
2019-03-28T04:45:16.155Z,83.35
2019-03-28T04:47:46.002Z,76.37
2019-03-28T04:50:15.623Z,94.85
2019-03-28T04:52:45.625Z,82.25
2019-03-28T04:55:15.476Z,78.42
2019-03-28T04:57:45.351Z,83.42
2019-03-28T05:00:16.066Z,85.70
2019-03-28T05:02:46.120Z,89.30
2019-03-28T05:05:15.949Z,86.57
2019-03-28T05:07:45.527Z,83.33
2019-03-28T05:10:15.429Z,83.12
2019-03-28T05:12:45.457Z,87.02
2019-03-28T05:15:15.451Z,88.20
2019-03-28T05:17:45.541Z,80.83
2019-03-28T05:20:15.309Z,84.65
2019-03-28T05:22:45.294Z,84.17
2019-03-28T05:25:15.165Z,91.87
2019-03-28T05:27:45.012Z,79.75
2019-03-28T05:30:14.824Z,79.55
2019-03-28T05:32:44.336Z,85.53
2019-03-28T05:35:14.171Z,85.38
2019-03-28T05:37:43.927Z,85.00
2019-03-28T05:40:13.891Z,81.15
2019-03-28T05:42:43.565Z,83.05
2019-03-28T05:45:13.207Z,83.20
2019-03-28T05:47:42.811Z,84.62
2019-03-28T05:50:12.532Z,85.22
2019-03-28T05:52:42.032Z,82.25
2019-03-28T05:55:12.192Z,86.02
2019-03-28T05:57:42.240Z,83.80
2019-03-28T06:00:13.549Z,79.42
2019-03-28T06:02:43.731Z,91.35
2019-03-28T06:05:13.385Z,95.28
2019-03-28T06:07:42.903Z,87.42
2019-03-28T06:10:16.117Z,82.60
2019-03-28T06:12:44.312Z,86.08
2019-03-28T06:15:14.162Z,81.97
2019-03-28T06:17:43.735Z,84.85
2019-03-28T06:20:13.874Z,82.37
2019-03-28T06:22:43.658Z,74.15
2019-03-28T06:25:13.328Z,79.85
2019-03-28T06:27:43.085Z,78.72
2019-03-28T06:30:13.509Z,79.10
2019-03-28T06:32:43.694Z,94.03
2019-03-28T06:35:13.782Z,94.35
2019-03-28T06:37:43.934Z,85.83
2019-03-28T06:40:13.950Z,81.37
2019-03-28T06:42:43.799Z,80.67
2019-03-28T09:27:24.558Z,36.38
2019-03-28T09:29:54.148Z,37.33
2019-03-28T09:32:24.648Z,38.53
2019-03-28T09:34:54.490Z,34.88
2019-03-28T09:37:24.371Z,31.35
2019-03-28T09:39:53.909Z,39.92
2019-03-28T09:42:23.483Z,55.55
2019-03-28T09:44:53.087Z,44.85
2019-03-28T09:47:23.028Z,44.18
2019-03-28T09:49:52.904Z,38.00
2019-03-28T09:52:22.588Z,40.85
2019-03-28T09:54:52.491Z,40.40
2019-03-28T09:57:22.362Z,32.40
2019-03-28T09:59:52.174Z,29.37
2019-03-28T10:02:21.830Z,48.83
2019-03-28T10:04:51.402Z,59.20
2019-03-28T10:07:21.496Z,37.58
2019-03-28T10:09:51.444Z,28.57
2019-03-28T10:12:21.264Z,37.15
2019-03-28T10:14:51.160Z,37.03
2019-03-28T10:17:20.659Z,32.13
2019-03-28T10:19:50.233Z,32.40
2019-03-28T10:22:22.258Z,30.00
2019-03-28T10:24:51.054Z,34.83
2019-03-28T10:27:20.725Z,32.25
2019-03-28T10:29:50.888Z,29.37
2019-03-28T10:32:20.775Z,30.10
2019-03-28T10:34:51.145Z,29.67
2019-03-28T10:37:20.813Z,31.80
2019-03-28T10:39:50.577Z,26.90
2019-03-28T10:42:20.682Z,25.97
2019-03-28T10:44:50.611Z,35.13
2019-03-28T10:47:21.090Z,22.80
2019-03-28T10:49:50.647Z,131.75
2019-03-28T10:52:20.512Z,180.32
2019-03-28T10:54:52.035Z,77.15
2019-03-28T10:57:29.994Z,23.50
2019-03-28T10:59:53.118Z,24.87
2019-03-28T11:02:22.801Z,27.87
2019-03-28T11:04:52.369Z,26.75
2019-03-28T11:07:21.947Z,29.77
2019-03-28T11:09:51.517Z,15.88
2019-03-28T11:12:21.094Z,19.73
2019-03-28T11:14:50.589Z,18.55
2019-03-28T11:17:20.469Z,14.45
2019-03-28T11:19:50.026Z,20.15
2019-03-28T11:22:19.826Z,18.92
2019-03-28T11:24:49.597Z,15.98
2019-03-28T11:27:19.538Z,15.68
2019-03-28T11:29:49.221Z,14.28
2019-03-28T11:32:18.946Z,12.00
2019-03-28T11:34:48.838Z,14.20
2019-03-28T11:37:26.086Z,11.63
2019-03-28T11:39:49.975Z,12.73
2019-03-28T11:42:19.751Z,12.60
2019-03-28T11:44:49.573Z,11.50
2019-03-28T11:47:22.049Z,7.22
2019-03-28T11:49:50.543Z,10.88
2019-03-28T11:52:20.224Z,10.82
2019-03-28T11:54:50.783Z,10.00
2019-03-28T11:57:20.282Z,9.60
2019-03-28T11:59:50.702Z,14.07
2019-03-28T12:02:20.805Z,14.58
2019-03-28T12:04:50.621Z,9.75
2019-03-28T12:07:20.541Z,13.00
2019-03-28T12:09:50.009Z,10.80
2019-03-28T12:12:19.785Z,8.13
2019-03-28T12:14:49.299Z,8.30
2019-03-28T12:17:19.132Z,7.72
2019-03-28T12:19:50.558Z,12.05
2019-03-28T12:22:20.436Z,11.40
2019-03-28T12:24:50.066Z,11.95
2019-03-28T12:27:19.656Z,10.68
2019-03-28T12:29:49.889Z,6.12
2019-03-28T12:32:19.860Z,7.58
2019-03-28T12:34:49.437Z,11.28
2019-03-28T12:37:19.026Z,12.53
2019-03-28T12:39:48.996Z,7.10
2019-03-28T12:42:18.668Z,10.98
2019-03-28T12:44:57.015Z,10.13
2019-03-28T12:47:19.716Z,8.58
2019-03-28T12:49:49.489Z,10.43
2019-03-28T12:52:19.110Z,17.50
2019-03-28T12:54:49.058Z,25.48
2019-03-28T12:57:18.577Z,15.68
2019-03-28T12:59:48.534Z,10.68
2019-03-28T13:02:30.054Z,16.45
2019-03-28T13:04:50.103Z,12.68
2019-03-28T13:07:19.882Z,23.92
2019-03-28T13:09:49.563Z,24.45
2019-03-28T13:12:19.204Z,8.43
2019-03-28T13:14:48.977Z,10.50
2019-03-28T13:17:18.548Z,10.15
2019-03-28T13:19:48.425Z,15.95
2019-03-28T13:22:18.105Z,8.00
2019-03-28T13:24:47.687Z,12.47
2019-03-28T13:27:18.128Z,12.53
2019-03-28T13:29:47.760Z,9.58
2019-03-28T13:32:17.536Z,8.15
2019-03-28T13:34:46.972Z,11.93
2019-03-28T13:37:16.738Z,9.35
2019-03-28T13:39:46.465Z,8.23
2019-03-28T13:42:15.906Z,9.98
2019-03-28T13:44:46.665Z,12.37
2019-03-28T13:47:16.192Z,16.37
2019-03-28T13:49:45.832Z,15.72
2019-03-28T13:52:15.997Z,10.20
2019-03-28T13:54:45.632Z,13.70
2019-03-28T13:57:15.463Z,10.25
2019-03-28T13:59:45.138Z,13.58
2019-03-28T14:02:15.023Z,12.90
2019-03-28T14:04:44.661Z,15.20
2019-03-28T14:07:17.067Z,8.35
2019-03-28T14:09:45.373Z,12.33
2019-03-28T14:12:15.090Z,12.35
2019-03-28T14:14:44.546Z,14.20
2019-03-28T14:17:14.085Z,9.65
2019-03-28T14:19:43.639Z,9.60
2019-03-28T14:22:13.107Z,16.15
2019-03-28T14:24:42.753Z,11.63
2019-03-28T14:27:12.333Z,38.70
2019-03-28T14:29:42.671Z,11.50
2019-03-28T14:32:12.347Z,11.12
2019-03-28T14:34:41.773Z,9.28
2019-03-28T14:37:11.227Z,7.58
2019-03-28T14:39:41.087Z,9.75
2019-03-28T14:42:11.059Z,8.25
2019-03-28T14:44:40.923Z,17.90
2019-03-28T14:47:10.683Z,19.40
2019-03-28T14:49:40.355Z,13.15
2019-03-28T14:52:10.515Z,11.38
2019-03-28T14:54:40.061Z,13.53
2019-03-28T14:57:10.970Z,12.55
2019-03-28T14:59:42.235Z,28.52
2019-03-28T15:02:11.971Z,47.10
2019-03-28T15:04:41.848Z,60.63
2019-03-28T15:07:11.442Z,16.55
2019-03-28T15:09:40.991Z,17.45
2019-03-28T15:12:10.445Z,11.15
2019-03-28T15:14:39.892Z,16.52
2019-03-28T15:17:09.629Z,9.20
2019-03-28T15:19:39.294Z,9.33
2019-03-28T15:22:08.965Z,11.57
2019-03-28T15:24:38.625Z,19.00
2019-03-28T15:27:08.083Z,16.52
2019-03-28T15:29:37.831Z,10.43
2019-03-28T15:32:07.208Z,12.58
2019-03-28T15:34:36.851Z,13.43
2019-03-28T15:37:06.610Z,30.82
2019-03-28T15:39:36.534Z,14.98
2019-03-28T15:42:06.204Z,16.77
2019-03-28T15:44:35.687Z,18.37
2019-03-28T15:47:05.128Z,18.17
2019-03-28T15:49:34.926Z,20.23
2019-03-28T15:52:05.218Z,19.42
2019-03-28T15:54:35.600Z,26.80
2019-03-28T15:57:05.261Z,27.35
2019-03-28T15:59:34.786Z,42.33
2019-03-28T16:02:04.627Z,25.72
2019-03-28T16:04:34.475Z,27.67
2019-03-28T16:07:05.019Z,20.95
2019-03-28T16:09:34.682Z,20.02
2019-03-28T16:12:04.134Z,14.90
2019-03-28T16:14:33.910Z,14.18
2019-03-28T16:17:03.553Z,12.70
2019-03-28T16:19:33.131Z,13.35
2019-03-28T16:22:04.303Z,10.45
2019-03-28T16:24:34.106Z,18.45
2019-03-28T16:27:03.895Z,13.55
2019-03-28T16:29:33.928Z,14.63
2019-03-28T16:32:04.088Z,13.70
2019-03-28T16:34:34.136Z,12.20
2019-03-28T16:37:03.968Z,10.98
2019-03-28T16:39:33.809Z,9.93
2019-03-28T16:42:03.240Z,13.88
2019-03-28T16:44:32.679Z,10.75
2019-03-28T16:47:02.071Z,10.45
2019-03-28T16:49:31.976Z,13.38
2019-03-28T16:52:01.744Z,12.63
2019-03-28T16:54:31.394Z,14.85
2019-03-28T16:57:01.135Z,13.30
2019-03-28T16:59:30.883Z,12.75
2019-03-28T17:02:00.516Z,13.83
2019-03-28T17:04:30.040Z,15.13
2019-03-28T17:07:00.873Z,12.10
2019-03-28T17:09:31.556Z,16.80
2019-03-28T17:12:01.563Z,12.18
2019-03-28T17:14:31.383Z,12.43
2019-03-28T17:17:02.944Z,12.82
2019-03-28T17:19:32.937Z,14.73
2019-03-28T17:22:02.670Z,9.08
2019-03-28T17:24:32.151Z,14.10
2019-03-28T17:27:01.636Z,12.95
2019-03-28T17:29:31.458Z,12.00
2019-03-28T17:32:01.146Z,12.85
2019-03-28T17:34:34.983Z,12.85
2019-03-28T17:37:02.240Z,14.90
2019-03-28T17:39:31.935Z,11.85
2019-03-28T17:42:01.577Z,13.03
2019-03-28T17:44:31.134Z,14.33
2019-03-28T17:47:01.031Z,14.40
2019-03-28T17:49:30.671Z,13.03
2019-03-28T17:52:01.112Z,13.25
2019-03-28T17:54:31.347Z,14.85
2019-03-28T17:57:00.882Z,15.25
2019-03-28T17:59:30.333Z,14.03
2019-03-28T18:01:59.921Z,14.95
2019-03-28T18:04:29.452Z,15.88
2019-03-28T18:06:59.298Z,15.05
2019-03-28T18:09:29.655Z,17.65
2019-03-28T18:11:59.244Z,17.73
2019-03-28T18:14:28.978Z,16.23
2019-03-28T18:16:59.554Z,17.50
2019-03-28T18:19:29.759Z,17.52
2019-03-28T18:22:03.683Z,16.90
2019-03-28T18:24:30.738Z,19.25
2019-03-28T18:27:00.518Z,16.50
2019-03-28T18:29:35.839Z,17.42
2019-03-28T18:32:04.247Z,18.77
2019-03-28T18:34:34.114Z,19.07
2019-03-28T18:37:03.658Z,17.25
2019-03-28T18:39:34.545Z,17.45
2019-03-28T18:42:05.094Z,19.82
2019-03-28T18:44:35.402Z,13.20
2019-03-28T18:47:05.077Z,18.40
2019-03-28T18:49:36.405Z,21.00
2019-03-28T18:52:07.484Z,19.55
2019-03-28T18:54:37.479Z,30.48
2019-03-28T18:57:07.256Z,28.02
2019-03-28T18:59:38.613Z,26.37
2019-03-28T19:02:08.264Z,31.85
2019-03-28T19:04:38.155Z,34.03
2019-03-28T19:07:07.617Z,34.90
2019-03-28T19:09:37.145Z,43.60
2019-03-28T19:12:06.897Z,39.48
2019-03-28T19:14:36.767Z,47.30
2019-03-28T19:17:07.888Z,37.38
2019-03-28T19:19:39.584Z,38.70
2019-03-28T19:22:08.999Z,36.60
2019-03-28T19:24:38.700Z,35.70
2019-03-28T19:27:08.199Z,36.17
2019-03-28T19:29:37.970Z,35.78
2019-03-28T19:32:07.654Z,40.38
2019-03-28T19:34:37.086Z,34.27
2019-03-28T19:37:07.184Z,27.73
2019-03-28T19:39:36.916Z,25.55
2019-03-28T19:42:06.586Z,23.92
2019-03-28T19:44:36.902Z,31.45
2019-03-28T19:47:06.657Z,28.32
2019-03-28T19:49:36.285Z,34.73
2019-03-28T19:52:05.886Z,34.75
2019-03-28T19:54:35.995Z,27.50
2019-03-28T19:57:05.816Z,30.97
2019-03-28T19:59:35.259Z,24.98
2019-03-28T20:02:04.924Z,29.72
2019-03-28T20:04:34.371Z,23.47
2019-03-28T20:07:03.872Z,21.93
2019-03-28T20:09:33.648Z,22.07
2019-03-28T20:12:03.702Z,27.45
2019-03-28T20:14:34.130Z,24.40
2019-03-28T20:17:04.047Z,20.40
2019-03-28T20:19:33.767Z,18.95
2019-03-28T20:22:04.675Z,21.48
2019-03-28T20:24:34.577Z,23.40
2019-03-28T20:27:04.697Z,31.02
2019-03-28T20:29:35.078Z,30.65
2019-03-28T20:32:06.746Z,28.80
2019-03-28T20:34:35.940Z,26.62
2019-03-28T20:37:05.479Z,25.68
2019-03-28T20:39:34.918Z,37.73
2019-03-28T20:42:04.475Z,31.55
2019-03-28T20:44:34.223Z,28.42
2019-03-28T20:47:03.772Z,30.85
2019-03-28T20:49:33.371Z,29.98
2019-03-28T20:52:02.915Z,30.90
2019-03-28T20:54:32.622Z,29.32
2019-03-28T20:57:04.666Z,26.40
2019-03-28T20:59:37.406Z,26.17
2019-03-28T21:02:07.130Z,26.87
2019-03-28T21:04:38.799Z,33.35
2019-03-28T21:07:08.348Z,39.30
2019-03-28T21:09:38.104Z,42.43
2019-03-28T21:12:07.495Z,35.28
2019-03-28T21:14:37.158Z,37.08
2019-03-28T21:17:07.093Z,45.35
2019-03-28T21:19:36.936Z,43.48
2019-03-28T21:22:06.645Z,38.78
2019-03-28T21:24:36.023Z,43.25
2019-03-28T21:27:06.906Z,40.38
2019-03-28T21:29:48.261Z,46.63
2019-03-28T21:32:09.558Z,41.30
2019-03-28T21:34:39.105Z,47.17
2019-03-28T21:37:08.589Z,55.17
2019-03-28T21:39:40.113Z,50.75
2019-03-28T21:42:09.650Z,50.90
2019-03-28T21:44:39.100Z,58.25
2019-03-28T21:47:08.488Z,51.02
2019-03-28T21:49:38.342Z,52.90
2019-03-28T21:52:07.849Z,45.33
2019-03-28T21:54:37.759Z,49.08
2019-03-28T21:57:07.464Z,47.88
2019-03-28T21:59:37.553Z,47.90
2019-03-28T22:02:07.372Z,40.15
2019-03-28T22:04:37.216Z,39.42
2019-03-28T22:07:07.062Z,27.00
2019-03-28T22:09:39.605Z,26.68
2019-03-28T22:12:07.948Z,26.62
2019-03-28T22:14:37.675Z,32.45
2019-03-28T22:17:07.413Z,40.08
2019-03-28T22:19:37.459Z,41.77
2019-03-28T22:22:07.193Z,45.83
2019-03-28T22:24:39.064Z,52.85
2019-03-28T22:27:07.707Z,55.52
2019-03-28T22:29:37.358Z,43.38
2019-03-28T22:32:07.083Z,57.80
2019-03-28T22:34:36.733Z,50.50
2019-03-28T22:37:06.271Z,37.60
2019-03-28T22:39:36.019Z,35.45
2019-03-28T22:42:05.695Z,41.13
2019-03-28T22:44:35.393Z,44.60
2019-03-28T22:47:07.134Z,53.85
2019-03-28T22:49:36.589Z,53.85
2019-03-28T22:52:06.126Z,47.78
2019-03-28T22:54:35.879Z,43.20
2019-03-28T22:57:05.583Z,62.73
2019-03-28T22:59:35.065Z,55.10
2019-03-28T23:02:05.393Z,58.28
2019-03-28T23:04:34.841Z,67.67
2019-03-28T23:07:10.975Z,71.17
2019-03-28T23:09:35.703Z,76.55
2019-03-28T23:12:05.632Z,86.85
2019-03-28T23:14:35.090Z,71.87
2019-03-28T23:17:06.598Z,74.55
2019-03-28T23:19:36.410Z,59.80
2019-03-28T23:22:05.846Z,56.10
2019-03-28T23:24:35.295Z,45.40
2019-03-28T23:27:04.754Z,45.15
2019-03-28T23:29:34.641Z,47.20
2019-03-28T23:32:04.361Z,49.30
2019-03-28T23:34:33.802Z,60.33
2019-03-28T23:37:03.545Z,54.50
2019-03-28T23:39:32.925Z,57.40
2019-03-28T23:42:02.975Z,84.50
2019-03-28T23:44:32.428Z,83.87
2019-03-28T23:47:03.741Z,90.80
2019-03-28T23:49:33.611Z,96.95
2019-03-28T23:52:03.639Z,96.85
2019-03-28T23:54:33.628Z,102.70
2019-03-28T23:57:03.474Z,92.97
2019-03-28T23:59:33.203Z,94.92
